Capitol Logistics 993


HTZA
Abeid Amani Karume International Airport
Zanzibar, TZ
FMMI
Ivato International Airport
Antananarivo, MG

Activity Log

Date Flight Route Aircraft Duration
12/20/2019 CPX993 UVMEX UT913 KINAN UA401 DIRBA KEKIN KEKI1B B763 2h 27m
11/17/2019 CPX993 Not Available B763 2h 35m

Route Details

Aircraft Information
Primary: Boeing 767-300BDSF
Backup: Not Available
Route Data
Distance: 893nm
Sched. Duration: 2h 04m
Avg. Duration: 2h 31m (+27m)
Times Flown: 2
Recm'd Route: Not Available
Planned Altitude: 33,000ft
Origin Wx: HTZA 231300Z 05010KT 9999 FEW026 33/24 Q1008 NOSIG
Dest. Wx: FMMI 231330Z 11007KT 3000 -TSRA FEW010 SCT017CB BKN020 21/20 Q1015 TEMPO -TSRA
Notes:

Financial History
Total Freight: 138,187lbs
Average Load: 69,094lbs/flt
Fuel Used: 48,384lbs
Avg. Fuel Used: 24,192lbs/flt
Fuel Expense: $32,901
Avg. Fuel Expense: $16,451
Avg. Fuel Cost: $0.68/lbs
Total Gross Income: $1,356,996
Pilot Pay: $468
Total Expenses: $146,660
Total Revenue: $1,176,352
Average Revenue: $678,498.16